sensor_id;sensor_type;location;lat;lon;timestamp;pressure;altitude;pressure_sealevel;temperature;humidity
74637;BME280;63141;54.616;39.754;2022-11-15T00:00:35;100752.16;;;24.25;33.50
74637;BME280;63141;54.616;39.754;2022-11-15T00:03:55;100753.94;;;24.24;33.22
74637;BME280;63141;54.616;39.754;2022-11-15T00:07:17;100749.44;;;24.27;33.30
74637;BME280;63141;54.616;39.754;2022-11-15T00:10:37;100744.13;;;24.27;33.48
74637;BME280;63141;54.616;39.754;2022-11-15T00:13:57;100742.31;;;24.27;33.42
74637;BME280;63141;54.616;39.754;2022-11-15T00:17:17;100745.84;;;24.28;33.52
74637;BME280;63141;54.616;39.754;2022-11-15T00:20:38;100747.59;;;24.29;33.20
74637;BME280;63141;54.616;39.754;2022-11-15T00:23:58;100743.13;;;24.29;33.52
74637;BME280;63141;54.616;39.754;2022-11-15T00:27:18;100736.94;;;24.29;33.48
74637;BME280;63141;54.616;39.754;2022-11-15T00:30:42;100738.66;;;24.30;33.17
74637;BME280;63141;54.616;39.754;2022-11-15T00:34:02;100730.66;;;24.30;33.11
74637;BME280;63141;54.616;39.754;2022-11-15T00:37:22;100735.09;;;24.31;33.17
74637;BME280;63141;54.616;39.754;2022-11-15T00:40:42;100734.19;;;24.30;33.19
74637;BME280;63141;54.616;39.754;2022-11-15T00:44:02;100735.94;;;24.31;33.22
74637;BME280;63141;54.616;39.754;2022-11-15T00:47:22;100735.00;;;24.32;33.31
74637;BME280;63141;54.616;39.754;2022-11-15T00:50:42;100730.63;;;24.31;33.39
74637;BME280;63141;54.616;39.754;2022-11-15T00:54:02;100730.63;;;24.31;33.15
74637;BME280;63141;54.616;39.754;2022-11-15T00:57:22;100724.34;;;24.32;33.10
74637;BME280;63141;54.616;39.754;2022-11-15T01:00:45;100722.59;;;24.33;33.05
74637;BME280;63141;54.616;39.754;2022-11-15T01:04:05;100716.31;;;24.34;33.14
74637;BME280;63141;54.616;39.754;2022-11-15T01:07:28;100713.66;;;24.34;33.30
74637;BME280;63141;54.616;39.754;2022-11-15T01:10:47;100713.66;;;24.34;32.90
74637;BME280;63141;54.616;39.754;2022-11-15T01:14:07;100710.06;;;24.35;33.04
74637;BME280;63141;54.616;39.754;2022-11-15T01:17:27;100703.00;;;24.34;32.94
74637;BME280;63141;54.616;39.754;2022-11-15T01:20:47;100703.00;;;24.34;32.81
74637;BME280;63141;54.616;39.754;2022-11-15T01:24:08;100696.75;;;24.35;33.00
74637;BME280;63141;54.616;39.754;2022-11-15T01:27:31;100699.41;;;24.35;32.85
74637;BME280;63141;54.616;39.754;2022-11-15T01:30:51;100702.97;;;24.35;32.89
74637;BME280;63141;54.616;39.754;2022-11-15T01:34:16;100698.50;;;24.36;32.75
74637;BME280;63141;54.616;39.754;2022-11-15T01:37:36;100689.66;;;24.35;33.10
74637;BME280;63141;54.616;39.754;2022-11-15T01:40:56;100693.16;;;24.36;32.82
74637;BME280;63141;54.616;39.754;2022-11-15T01:44:36;100697.53;;;24.37;33.13
74637;BME280;63141;54.616;39.754;2022-11-15T01:47:58;100691.41;;;24.35;33.09
74637;BME280;63141;54.616;39.754;2022-11-15T01:51:19;100696.69;;;24.36;33.05
74637;BME280;63141;54.616;39.754;2022-11-15T01:54:40;100689.56;;;24.37;33.26
74637;BME280;63141;54.616;39.754;2022-11-15T01:58:02;100693.16;;;24.36;32.82
74637;BME280;63141;54.616;39.754;2022-11-15T02:01:24;100686.91;;;24.37;33.26
74637;BME280;63141;54.616;39.754;2022-11-15T02:04:50;100685.19;;;24.36;33.10
74637;BME280;63141;54.616;39.754;2022-11-15T02:08:11;100682.47;;;24.37;32.75
74637;BME280;63141;54.616;39.754;2022-11-15T02:11:38;100685.13;;;24.37;32.78
74637;BME280;63141;54.616;39.754;2022-11-15T02:14:59;100689.56;;;24.37;33.08
74637;BME280;63141;54.616;39.754;2022-11-15T02:18:49;100684.25;;;24.37;32.93
74637;BME280;63141;54.616;39.754;2022-11-15T02:26:13;100691.31;;;24.38;32.84
74637;BME280;63141;54.616;39.754;2022-11-15T02:37:34;100691.31;;;24.38;32.77
74637;BME280;63141;54.616;39.754;2022-11-15T02:41:06;100690.38;;;24.39;32.97
74637;BME280;63141;54.616;39.754;2022-11-15T02:47:54;100693.97;;;24.38;32.63
74637;BME280;63141;54.616;39.754;2022-11-15T02:51:16;100695.69;;;24.39;33.00
74637;BME280;63141;54.616;39.754;2022-11-15T02:54:36;100693.03;;;24.39;32.68
74637;BME280;63141;54.616;39.754;2022-11-15T03:05:19;100690.38;;;24.39;33.03
74637;BME280;63141;54.616;39.754;2022-11-15T03:09:03;100688.66;;;24.38;32.58
74637;BME280;63141;54.616;39.754;2022-11-15T03:16:03;100687.84;;;24.36;33.00
74637;BME280;63141;54.616;39.754;2022-11-15T03:19:40;100682.56;;;24.34;32.87
74637;BME280;63141;54.616;39.754;2022-11-15T03:23:06;100685.31;;;24.33;32.80
74637;BME280;63141;54.616;39.754;2022-11-15T03:26:28;100688.84;;;24.33;32.72
74637;BME280;63141;54.616;39.754;2022-11-15T03:29:57;100679.03;;;24.34;32.94
74637;BME280;63141;54.616;39.754;2022-11-15T03:33:21;100682.66;;;24.33;33.03
74637;BME280;63141;54.616;39.754;2022-11-15T03:36:42;100685.31;;;24.33;33.03
74637;BME280;63141;54.616;39.754;2022-11-15T03:40:03;100688.88;;;24.32;33.05
74637;BME280;63141;54.616;39.754;2022-11-15T03:43:39;100687.16;;;24.31;32.74
74637;BME280;63141;54.616;39.754;2022-11-15T03:47:16;100694.22;;;24.32;33.05
74637;BME280;63141;54.616;39.754;2022-11-15T03:50:37;100693.41;;;24.30;32.85
74637;BME280;63141;54.616;39.754;2022-11-15T03:53:57;100705.84;;;24.29;32.95
74637;BME280;63141;54.616;39.754;2022-11-15T03:57:17;100704.06;;;24.30;32.99
74637;BME280;63141;54.616;39.754;2022-11-15T04:00:37;100697.91;;;24.28;32.95
74637;BME280;63141;54.616;39.754;2022-11-15T04:04:01;100696.16;;;24.28;32.55
74637;BME280;63141;54.616;39.754;2022-11-15T04:07:22;100686.41;;;24.27;32.42
74637;BME280;63141;54.616;39.754;2022-11-15T04:10:42;100690.88;;;24.27;32.95
74637;BME280;63141;54.616;39.754;2022-11-15T04:14:02;100700.66;;;24.26;32.74
74637;BME280;63141;54.616;39.754;2022-11-15T04:17:22;100694.41;;;24.27;32.99
74637;BME280;63141;54.616;39.754;2022-11-15T04:20:42;100690.88;;;24.27;32.60
74637;BME280;63141;54.616;39.754;2022-11-15T04:24:22;100687.28;;;24.28;32.84
74637;BME280;63141;54.616;39.754;2022-11-15T04:27:42;100685.50;;;24.28;32.90
74637;BME280;63141;54.616;39.754;2022-11-15T04:31:02;100680.19;;;24.28;32.92
74637;BME280;63141;54.616;39.754;2022-11-15T04:34:21;100675.72;;;24.29;32.76
74637;BME280;63141;54.616;39.754;2022-11-15T04:37:41;100665.88;;;24.31;32.17
74637;BME280;63141;54.616;39.754;2022-11-15T04:41:01;100671.19;;;24.31;32.41
74637;BME280;63141;54.616;39.754;2022-11-15T04:44:21;100676.53;;;24.31;32.56
74637;BME280;63141;54.616;39.754;2022-11-15T04:47:44;100682.66;;;24.33;32.59
74637;BME280;63141;54.616;39.754;2022-11-15T04:51:04;100682.66;;;24.33;32.47
74637;BME280;63141;54.616;39.754;2022-11-15T04:54:24;100672.91;;;24.32;32.53
74637;BME280;63141;54.616;39.754;2022-11-15T04:57:44;100674.66;;;24.33;32.73
74637;BME280;63141;54.616;39.754;2022-11-15T05:01:12;100675.53;;;24.33;32.44
74637;BME280;63141;54.616;39.754;2022-11-15T05:04:37;100683.50;;;24.33;32.40
74637;BME280;63141;54.616;39.754;2022-11-15T05:07:57;100680.00;;;24.33;32.65
74637;BME280;63141;54.616;39.754;2022-11-15T05:11:17;100679.03;;;24.34;32.40
74637;BME280;63141;54.616;39.754;2022-11-15T05:14:37;100678.09;;;24.35;32.57
74637;BME280;63141;54.616;39.754;2022-11-15T05:17:58;100683.44;;;24.35;32.47
74637;BME280;63141;54.616;39.754;2022-11-15T05:21:20;100676.34;;;24.35;32.72
74637;BME280;63141;54.616;39.754;2022-11-15T05:24:40;100682.50;;;24.36;32.83
74637;BME280;63141;54.616;39.754;2022-11-15T05:27:59;100672.78;;;24.35;32.45
74637;BME280;63141;54.616;39.754;2022-11-15T05:31:19;100669.22;;;24.36;32.50
74637;BME280;63141;54.616;39.754;2022-11-15T05:34:39;100664.75;;;24.36;32.49
74637;BME280;63141;54.616;39.754;2022-11-15T05:37:59;100661.22;;;24.36;32.41
74637;BME280;63141;54.616;39.754;2022-11-15T05:41:22;100663.03;;;24.35;32.58
74637;BME280;63141;54.616;39.754;2022-11-15T05:44:48;100653.22;;;24.36;32.21
74637;BME280;63141;54.616;39.754;2022-11-15T05:48:09;100645.19;;;24.37;32.75
74637;BME280;63141;54.616;39.754;2022-11-15T05:51:30;100644.31;;;24.37;32.33
74637;BME280;63141;54.616;39.754;2022-11-15T05:54:50;100655.84;;;24.37;32.26
74637;BME280;63141;54.616;39.754;2022-11-15T05:58:11;100656.69;;;24.38;32.53
74637;BME280;63141;54.616;39.754;2022-11-15T06:01:31;100655.84;;;24.37;32.60
74637;BME280;63141;54.616;39.754;2022-11-15T06:04:56;100654.03;;;24.38;32.36
74637;BME280;63141;54.616;39.754;2022-11-15T06:08:15;100654.03;;;24.38;32.46
74637;BME280;63141;54.616;39.754;2022-11-15T06:11:35;100653.94;;;24.39;32.71
74637;BME280;63141;54.616;39.754;2022-11-15T06:14:55;100663.75;;;24.39;32.29
74637;BME280;63141;54.616;39.754;2022-11-15T06:18:15;100663.75;;;24.39;32.36
74637;BME280;63141;54.616;39.754;2022-11-15T06:21:35;100654.84;;;24.40;32.18
74637;BME280;63141;54.616;39.754;2022-11-15T06:24:55;100656.63;;;24.39;32.23
74637;BME280;63141;54.616;39.754;2022-11-15T06:28:15;100653.09;;;24.39;32.63
74637;BME280;63141;54.616;39.754;2022-11-15T06:31:35;100651.25;;;24.41;32.31
74637;BME280;63141;54.616;39.754;2022-11-15T06:34:55;100646.84;;;24.40;32.58
74637;BME280;63141;54.616;39.754;2022-11-15T06:38:15;100661.88;;;24.41;32.22
74637;BME280;63141;54.616;39.754;2022-11-15T06:41:36;100659.22;;;24.41;32.50
74637;BME280;63141;54.616;39.754;2022-11-15T06:44:56;100662.75;;;24.41;32.37
74637;BME280;63141;54.616;39.754;2022-11-15T06:48:15;100656.56;;;24.41;32.37
74637;BME280;63141;54.616;39.754;2022-11-15T06:51:36;100657.41;;;24.41;32.24
74637;BME280;63141;54.616;39.754;2022-11-15T06:54:56;100656.56;;;24.41;32.32
74637;BME280;63141;54.616;39.754;2022-11-15T06:58:16;100660.09;;;24.41;32.45
74637;BME280;63141;54.616;39.754;2022-11-15T07:01:36;100658.31;;;24.42;32.47
74637;BME280;63141;54.616;39.754;2022-11-15T07:05:01;100662.69;;;24.43;32.05
74637;BME280;63141;54.616;39.754;2022-11-15T07:08:21;100654.75;;;24.41;32.67
74637;BME280;63141;54.616;39.754;2022-11-15T07:11:42;100657.50;;;24.40;32.12
74637;BME280;63141;54.616;39.754;2022-11-15T07:15:02;100660.97;;;24.42;32.35
74637;BME280;63141;54.616;39.754;2022-11-15T07:18:22;100655.66;;;24.42;32.36
74637;BME280;63141;54.616;39.754;2022-11-15T07:21:41;100649.44;;;24.41;32.29
74637;BME280;63141;54.616;39.754;2022-11-15T07:25:02;100650.25;;;24.43;32.07
74637;BME280;63141;54.616;39.754;2022-11-15T07:28:22;100644.91;;;24.43;32.33
74637;BME280;63141;54.616;39.754;2022-11-15T07:31:42;100636.06;;;24.43;32.49
74637;BME280;63141;54.616;39.754;2022-11-15T07:35:02;100639.59;;;24.43;32.43
74637;BME280;63141;54.616;39.754;2022-11-15T07:38:21;100635.13;;;24.44;32.05
74637;BME280;63141;54.616;39.754;2022-11-15T07:41:42;100635.13;;;24.44;32.30
74637;BME280;63141;54.616;39.754;2022-11-15T07:45:03;100641.34;;;24.44;32.31
74637;BME280;63141;54.616;39.754;2022-11-15T07:48:23;100638.72;;;24.43;32.37
74637;BME280;63141;54.616;39.754;2022-11-15T07:51:43;100638.72;;;24.43;32.38
74637;BME280;63141;54.616;39.754;2022-11-15T07:55:04;100639.59;;;24.43;32.46
74637;BME280;63141;54.616;39.754;2022-11-15T07:58:23;100628.94;;;24.43;32.42
74637;BME280;63141;54.616;39.754;2022-11-15T08:01:43;100624.47;;;24.44;32.10
74637;BME280;63141;54.616;39.754;2022-11-15T08:05:08;100627.94;;;24.46;32.48
74637;BME280;63141;54.616;39.754;2022-11-15T08:08:27;100625.38;;;24.44;32.44
74637;BME280;63141;54.616;39.754;2022-11-15T08:11:47;100620.03;;;24.44;32.02
74637;BME280;63141;54.616;39.754;2022-11-15T08:15:08;100610.25;;;24.45;32.20
74637;BME280;63141;54.616;39.754;2022-11-15T08:18:28;100598.75;;;24.44;32.41
74637;BME280;63141;54.616;39.754;2022-11-15T08:21:48;100598.75;;;24.44;32.23
74637;BME280;63141;54.616;39.754;2022-11-15T08:25:08;100596.94;;;24.45;32.44
74637;BME280;63141;54.616;39.754;2022-11-15T08:28:28;100600.50;;;24.44;32.17
74637;BME280;63141;54.616;39.754;2022-11-15T08:36:42;100586.28;;;24.45;32.11
74637;BME280;63141;54.616;39.754;2022-11-15T08:40:04;100577.44;;;24.44;32.08
74637;BME280;63141;54.616;39.754;2022-11-15T08:43:24;100572.97;;;24.45;32.07
74637;BME280;63141;54.616;39.754;2022-11-15T08:46:45;100576.56;;;24.44;32.44
74637;BME280;63141;54.616;39.754;2022-11-15T08:50:06;100572.97;;;24.45;32.37
74637;BME280;63141;54.616;39.754;2022-11-15T08:53:26;100567.66;;;24.45;32.03
74637;BME280;63141;54.616;39.754;2022-11-15T08:56:46;100569.38;;;24.46;32.04
74637;BME280;63141;54.616;39.754;2022-11-15T09:00:06;100562.31;;;24.45;32.59
74637;BME280;63141;54.616;39.754;2022-11-15T09:03:31;100561.38;;;24.46;32.49
74637;BME280;63141;54.616;39.754;2022-11-15T09:06:51;100555.16;;;24.47;32.41
74637;BME280;63141;54.616;39.754;2022-11-15T09:10:11;100548.06;;;24.46;32.45
74637;BME280;63141;54.616;39.754;2022-11-15T09:13:32;100548.97;;;24.46;32.26
74637;BME280;63141;54.616;39.754;2022-11-15T09:16:52;100548.97;;;24.46;32.40
74637;BME280;63141;54.616;39.754;2022-11-15T09:20:12;100544.53;;;24.47;32.42
74637;BME280;63141;54.616;39.754;2022-11-15T09:23:32;100550.69;;;24.48;32.48
74637;BME280;63141;54.616;39.754;2022-11-15T09:26:52;100546.25;;;24.48;32.10
74637;BME280;63141;54.616;39.754;2022-11-15T09:30:12;100553.31;;;24.49;32.45
74637;BME280;63141;54.616;39.754;2022-11-15T09:33:32;100548.91;;;24.48;32.13
74637;BME280;63141;54.616;39.754;2022-11-15T09:36:52;100535.59;;;24.48;32.02
74637;BME280;63141;54.616;39.754;2022-11-15T09:40:14;100535.59;;;24.48;32.28
74637;BME280;63141;54.616;39.754;2022-11-15T09:50:51;100527.66;;;24.46;32.15
74637;BME280;63141;54.616;39.754;2022-11-15T09:57:39;100528.53;;;24.47;32.07
74637;BME280;63141;54.616;39.754;2022-11-15T10:00:46;100533.88;;;24.47;32.12
74637;BME280;63141;54.616;39.754;2022-11-15T10:03:56;100530.31;;;24.46;32.07
74637;BME280;63141;54.616;39.754;2022-11-15T10:13:32;100513.44;;;24.48;32.08
74637;BME280;63141;54.616;39.754;2022-11-15T10:20:15;100508.97;;;24.48;32.03
74637;BME280;63141;54.616;39.754;2022-11-15T10:23:21;100503.69;;;24.46;32.34
74637;BME280;63141;54.616;39.754;2022-11-15T10:26:23;100494.81;;;24.46;32.11
74637;BME280;63141;54.616;39.754;2022-11-15T10:29:25;100493.94;;;24.47;32.06
74637;BME280;63141;54.616;39.754;2022-11-15T10:32:27;100486.81;;;24.48;32.23
74637;BME280;63141;54.616;39.754;2022-11-15T10:35:30;100492.13;;;24.48;31.97
74637;BME280;63141;54.616;39.754;2022-11-15T10:38:31;100491.28;;;24.47;31.99
74637;BME280;63141;54.616;39.754;2022-11-15T10:41:37;100482.34;;;24.48;32.29
74637;BME280;63141;54.616;39.754;2022-11-15T10:44:42;100477.97;;;24.47;31.96
74637;BME280;63141;54.616;39.754;2022-11-15T10:47:44;100475.28;;;24.47;31.93
74637;BME280;63141;54.616;39.754;2022-11-15T10:50:47;100464.66;;;24.47;32.22
74637;BME280;63141;54.616;39.754;2022-11-15T10:53:50;100464.56;;;24.49;32.16
74637;BME280;63141;54.616;39.754;2022-11-15T10:56:54;100460.19;;;24.48;32.07
74637;BME280;63141;54.616;39.754;2022-11-15T11:00:00;100454.84;;;24.48;31.82
74637;BME280;63141;54.616;39.754;2022-11-15T11:03:34;100455.72;;;24.48;32.16
74637;BME280;63141;54.616;39.754;2022-11-15T11:06:58;100452.13;;;24.49;32.11
74637;BME280;63141;54.616;39.754;2022-11-15T11:10:17;100445.06;;;24.48;32.10
74637;BME280;63141;54.616;39.754;2022-11-15T11:13:45;100445.91;;;24.49;32.02
74637;BME280;63141;54.616;39.754;2022-11-15T11:20:38;100453.00;;;24.50;32.15
74637;BME280;63141;54.616;39.754;2022-11-15T11:24:03;100449.47;;;24.49;31.87
74637;BME280;63141;54.616;39.754;2022-11-15T11:34:15;100430.88;;;24.48;31.93
74637;BME280;63141;54.616;39.754;2022-11-15T11:37:52;100425.75;;;24.43;31.70
74637;BME280;63141;54.616;39.754;2022-11-15T11:41:15;100427.59;;;24.41;31.99
74637;BME280;63141;54.616;39.754;2022-11-15T11:48:12;100420.47;;;24.41;31.46
74637;BME280;63141;54.616;39.754;2022-11-15T11:58:24;100420.56;;;24.40;31.51
74637;BME280;63141;54.616;39.754;2022-11-15T12:01:34;100411.78;;;24.38;31.66
74637;BME280;63141;54.616;39.754;2022-11-15T12:04:45;100422.53;;;24.35;31.41
74637;BME280;63141;54.616;39.754;2022-11-15T12:07:50;100411.81;;;24.17;29.65
74637;BME280;63141;54.616;39.754;2022-11-15T12:11:03;100402.78;;;24.01;28.71
74637;BME280;63141;54.616;39.754;2022-11-15T12:17:25;100395.84;;;23.76;28.04
74637;BME280;63141;54.616;39.754;2022-11-15T12:20:30;100397.06;;;23.68;27.73
74637;BME280;63141;54.616;39.754;2022-11-15T12:23:41;100391.22;;;23.59;27.35
74637;BME280;63141;54.616;39.754;2022-11-15T12:27:00;100386.41;;;23.47;26.94
74637;BME280;63141;54.616;39.754;2022-11-15T12:30:18;100383.25;;;23.37;26.69
74637;BME280;63141;54.616;39.754;2022-11-15T12:33:48;100379.13;;;23.30;26.35
74637;BME280;63141;54.616;39.754;2022-11-15T12:36:51;100380.22;;;23.25;26.00
74637;BME280;63141;54.616;39.754;2022-11-15T12:43:38;100382.28;;;23.18;25.53
74637;BME280;63141;54.616;39.754;2022-11-15T12:49:44;100374.56;;;23.12;25.64
74637;BME280;63141;54.616;39.754;2022-11-15T12:56:25;100378.41;;;23.05;25.61
74637;BME280;63141;54.616;39.754;2022-11-15T12:59:49;100371.47;;;23.00;25.59
74637;BME280;63141;54.616;39.754;2022-11-15T13:03:18;100371.53;;;22.97;25.33
74637;BME280;63141;54.616;39.754;2022-11-15T13:06:37;100368.88;;;22.97;25.39
74637;BME280;63141;54.616;39.754;2022-11-15T13:15:56;100345.16;;;22.93;26.25
74637;BME280;63141;54.616;39.754;2022-11-15T13:19:01;100337.84;;;22.99;26.09
74637;BME280;63141;54.616;39.754;2022-11-15T13:22:08;100338.38;;;23.09;26.17
74637;BME280;63141;54.616;39.754;2022-11-15T13:29:12;100331.16;;;23.33;26.29
74637;BME280;63141;54.616;39.754;2022-11-15T13:32:16;100325.44;;;23.42;26.22
74637;BME280;63141;54.616;39.754;2022-11-15T13:35:23;100326.91;;;23.50;26.44
74637;BME280;63141;54.616;39.754;2022-11-15T13:41:34;100325.59;;;23.60;26.24
74637;BME280;63141;54.616;39.754;2022-11-15T13:44:36;100320.94;;;23.65;26.66
74637;BME280;63141;54.616;39.754;2022-11-15T13:47:37;100319.94;;;23.68;26.68
74637;BME280;63141;54.616;39.754;2022-11-15T13:50:39;100315.38;;;23.71;26.58
74637;BME280;63141;54.616;39.754;2022-11-15T13:53:43;100304.63;;;23.74;26.60
74637;BME280;63141;54.616;39.754;2022-11-15T13:56:51;100308.09;;;23.76;26.75
74637;BME280;63141;54.616;39.754;2022-11-15T14:00:03;100298.25;;;23.78;26.89
74637;BME280;63141;54.616;39.754;2022-11-15T14:03:18;100297.28;;;23.79;26.90
74637;BME280;63141;54.616;39.754;2022-11-15T14:06:27;100299.84;;;23.82;27.00
74637;BME280;63141;54.616;39.754;2022-11-15T14:12:36;100293.44;;;23.87;27.36
74637;BME280;63141;54.616;39.754;2022-11-15T14:15:39;100296.88;;;23.89;27.40
74637;BME280;63141;54.616;39.754;2022-11-15T14:18:45;100295.97;;;23.90;27.30
74637;BME280;63141;54.616;39.754;2022-11-15T14:25:20;100295.81;;;23.93;27.48
74637;BME280;63141;54.616;39.754;2022-11-15T14:31:23;100278.00;;;23.95;27.88
74637;BME280;63141;54.616;39.754;2022-11-15T14:34:25;100270.88;;;23.95;27.83
74637;BME280;63141;54.616;39.754;2022-11-15T14:37:31;100273.47;;;23.97;27.95
74637;BME280;63141;54.616;39.754;2022-11-15T14:40:35;100266.34;;;23.97;27.85
74637;BME280;63141;54.616;39.754;2022-11-15T14:43:36;100255.66;;;23.99;27.83
74637;BME280;63141;54.616;39.754;2022-11-15T14:46:38;100254.78;;;23.98;27.89
74637;BME280;63141;54.616;39.754;2022-11-15T14:49:39;100256.56;;;23.98;28.18
74637;BME280;63141;54.616;39.754;2022-11-15T14:52:41;100250.31;;;23.99;28.35
74637;BME280;63141;54.616;39.754;2022-11-15T14:55:43;100247.66;;;23.99;28.11
74637;BME280;63141;54.616;39.754;2022-11-15T14:58:45;100253.78;;;24.01;28.49
74637;BME280;63141;54.616;39.754;2022-11-15T15:01:49;100252.84;;;24.02;28.83
74637;BME280;63141;54.616;39.754;2022-11-15T15:04:50;100244.78;;;24.03;28.96
74637;BME280;63141;54.616;39.754;2022-11-15T15:07:54;100241.97;;;24.07;30.31
74637;BME280;63141;54.616;39.754;2022-11-15T15:10:56;100243.72;;;24.08;32.29
74637;BME280;63141;54.616;39.754;2022-11-15T15:13:57;100242.72;;;24.10;32.79
74637;BME280;63141;54.616;39.754;2022-11-15T15:17:02;100239.91;;;24.13;34.24
74637;BME280;63141;54.616;39.754;2022-11-15T15:20:03;100237.09;;;24.16;34.77
74637;BME280;63141;54.616;39.754;2022-11-15T15:23:05;100229.91;;;24.18;35.40
74637;BME280;63141;54.616;39.754;2022-11-15T15:26:07;100231.63;;;24.19;36.09
74637;BME280;63141;54.616;39.754;2022-11-15T15:29:09;100228.03;;;24.20;37.45
74637;BME280;63141;54.616;39.754;2022-11-15T15:32:10;100222.59;;;24.23;38.78
74637;BME280;63141;54.616;39.754;2022-11-15T15:35:13;100218.97;;;24.24;40.16
74637;BME280;63141;54.616;39.754;2022-11-15T15:38:15;100210.97;;;24.24;38.73
74637;BME280;63141;54.616;39.754;2022-11-15T15:41:16;100201.19;;;24.25;40.30
74637;BME280;63141;54.616;39.754;2022-11-15T15:44:18;100194.94;;;24.26;41.72
74637;BME280;63141;54.616;39.754;2022-11-15T15:47:21;100190.47;;;24.27;40.43
74637;BME280;63141;54.616;39.754;2022-11-15T15:50:31;100194.84;;;24.28;40.42
74637;BME280;63141;54.616;39.754;2022-11-15T15:53:33;100190.19;;;24.33;41.72
74637;BME280;63141;54.616;39.754;2022-11-15T15:56:36;100190.84;;;24.38;41.95
74637;BME280;63141;54.616;39.754;2022-11-15T15:59:37;100173.91;;;24.39;41.54
74637;BME280;63141;54.616;39.754;2022-11-15T16:02:42;100179.16;;;24.40;43.15
74637;BME280;63141;54.616;39.754;2022-11-15T16:05:43;100180.97;;;24.40;44.52
74637;BME280;63141;54.616;39.754;2022-11-15T16:08:47;100168.59;;;24.39;43.02
74637;BME280;63141;54.616;39.754;2022-11-15T16:11:49;100172.19;;;24.38;42.59
74637;BME280;63141;54.616;39.754;2022-11-15T16:14:50;100178.44;;;24.37;42.60
74637;BME280;63141;54.616;39.754;2022-11-15T16:17:53;100171.34;;;24.37;42.27
74637;BME280;63141;54.616;39.754;2022-11-15T16:20:55;100170.44;;;24.37;42.06
74637;BME280;63141;54.616;39.754;2022-11-15T16:23:57;100168.75;;;24.36;42.33
74637;BME280;63141;54.616;39.754;2022-11-15T16:26:59;100171.19;;;24.40;42.76
74637;BME280;63141;54.616;39.754;2022-11-15T16:30:00;100164.47;;;24.51;42.95
74637;BME280;63141;54.616;39.754;2022-11-15T16:33:01;100160.66;;;24.56;42.72
74637;BME280;63141;54.616;39.754;2022-11-15T16:36:05;100165.69;;;24.62;43.10
74637;BME280;63141;54.616;39.754;2022-11-15T16:39:10;100165.38;;;24.69;42.97
74637;BME280;63141;54.616;39.754;2022-11-15T16:42:14;100164.91;;;24.78;42.36
74637;BME280;63141;54.616;39.754;2022-11-15T16:45:15;100160.97;;;24.85;42.11
74637;BME280;63141;54.616;39.754;2022-11-15T16:48:27;100155.41;;;24.90;42.23
74637;BME280;63141;54.616;39.754;2022-11-15T16:51:28;100151.66;;;24.94;41.75
74637;BME280;63141;54.616;39.754;2022-11-15T16:54:29;100153.25;;;24.98;41.42
74637;BME280;63141;54.616;39.754;2022-11-15T16:57:31;100145.94;;;25.01;40.73
74637;BME280;63141;54.616;39.754;2022-11-15T17:00:35;100140.47;;;25.04;41.20
74637;BME280;63141;54.616;39.754;2022-11-15T17:03:36;100134.09;;;25.07;40.44
74637;BME280;63141;54.616;39.754;2022-11-15T17:06:41;100138.25;;;25.13;40.19
74637;BME280;63141;54.616;39.754;2022-11-15T17:09:43;100137.97;;;25.19;40.08
74637;BME280;63141;54.616;39.754;2022-11-15T17:12:45;100124.44;;;25.22;39.27
74637;BME280;63141;54.616;39.754;2022-11-15T17:15:46;100125.09;;;25.27;39.51
74637;BME280;63141;54.616;39.754;2022-11-15T17:18:50;100126.97;;;25.25;38.36
74637;BME280;63141;54.616;39.754;2022-11-15T17:21:52;100128.16;;;25.19;38.17
74637;BME280;63141;54.616;39.754;2022-11-15T17:24:54;100129.50;;;25.11;38.26
74637;BME280;63141;54.616;39.754;2022-11-15T17:27:55;100133.38;;;25.03;37.85
74637;BME280;63141;54.616;39.754;2022-11-15T17:30:56;100128.41;;;24.97;37.46
74637;BME280;63141;54.616;39.754;2022-11-15T17:34:00;100132.16;;;24.93;37.42
74637;BME280;63141;54.616;39.754;2022-11-15T17:37:01;100125.34;;;24.87;37.57
74637;BME280;63141;54.616;39.754;2022-11-15T17:40:03;100124.66;;;24.84;37.11
74637;BME280;63141;54.616;39.754;2022-11-15T17:43:05;100129.19;;;24.82;36.96
74637;BME280;63141;54.616;39.754;2022-11-15T17:46:12;100124.94;;;24.78;36.91
74637;BME280;63141;54.616;39.754;2022-11-15T17:49:13;100120.66;;;24.75;36.88
74637;BME280;63141;54.616;39.754;2022-11-15T17:52:15;100124.34;;;24.73;36.49
74637;BME280;63141;54.616;39.754;2022-11-15T17:55:17;100123.63;;;24.69;36.56
74637;BME280;63141;54.616;39.754;2022-11-15T17:58:18;100124.63;;;24.66;36.26
74637;BME280;63141;54.616;39.754;2022-11-15T18:01:30;100122.94;;;24.65;36.28
74637;BME280;63141;54.616;39.754;2022-11-15T18:04:33;100115.16;;;24.61;35.76
74637;BME280;63141;54.616;39.754;2022-11-15T18:07:37;100110.88;;;24.58;35.72
74637;BME280;63141;54.616;39.754;2022-11-15T18:10:39;100106.56;;;24.56;35.74
74637;BME280;63141;54.616;39.754;2022-11-15T18:13:44;100099.56;;;24.53;35.69
74637;BME280;63141;54.616;39.754;2022-11-15T18:16:45;100097.91;;;24.51;35.33
74637;BME280;63141;54.616;39.754;2022-11-15T18:19:47;100095.34;;;24.49;35.18
74637;BME280;63141;54.616;39.754;2022-11-15T18:22:52;100098.94;;;24.48;34.98
74637;BME280;63141;54.616;39.754;2022-11-15T18:25:55;100084.03;;;24.44;34.72
74637;BME280;63141;54.616;39.754;2022-11-15T18:29:02;100079.66;;;24.43;34.59
74637;BME280;63141;54.616;39.754;2022-11-15T18:32:05;100077.94;;;24.42;34.65